Time;durP1;ratioP1;P1;durP2;ratioP2;P2;SDS_P1;SDS_P2;PMS_P1;PMS_P2;Temp;Humidity;BMP_temperature;BMP_pressure;BME280_temperature;BME280_humidity;BME280_pressure;Samples;Min_cycle;Max_cycle;Signal;HPM_P1;HPM_P2
2022/04/15 00:01:17;;;;;;;8.18;6.80;;;;;;;13.21;100.00;99926.22;5010647;28;20034;-78
2022/04/15 00:03:43;;;;;;;10.15;7.35;;;;;;;13.06;100.00;99893.03;5010649;28;20052;-79
2022/04/15 00:06:10;;;;;;;9.68;7.68;;;;;;;13.19;100.00;99920.25;5009554;28;20121;-79
2022/04/15 00:08:36;;;;;;;11.85;8.65;;;;;;;13.22;100.00;99926.16;5010233;28;20553;-79
2022/04/15 00:11:02;;;;;;;10.55;8.90;;;;;;;13.11;100.00;99907.56;5010149;28;20037;-79
2022/04/15 00:13:31;;;;;;;10.98;9.60;;;;;;;13.17;100.00;99928.16;5010443;28;20517;-79
2022/04/15 00:15:57;;;;;;;12.23;9.23;;;;;;;13.20;100.00;99924.53;5041799;28;20183;-79
2022/04/15 00:18:24;;;;;;;10.95;9.65;;;;;;;13.11;100.00;99918.03;5072409;28;20029;-79
2022/04/15 00:20:51;;;;;;;13.07;10.30;;;;;;;13.09;100.00;99912.03;5072141;28;20411;-79
2022/04/15 00:23:18;;;;;;;16.05;10.60;;;;;;;13.16;100.00;99923.84;5072204;28;20035;-79
2022/04/15 00:25:44;;;;;;;12.23;10.10;;;;;;;13.03;100.00;99906.28;5072548;28;20024;-79
2022/04/15 00:28:09;;;;;;;13.65;10.98;;;;;;;13.14;100.00;99936.16;5072051;28;20028;-79
2022/04/15 00:30:34;;;;;;;11.90;10.38;;;;;;;13.10;100.00;99923.31;5072731;28;20111;-80
2022/04/15 00:33:00;;;;;;;12.05;10.68;;;;;;;13.08;100.00;99915.56;5071971;28;20473;-79
2022/04/15 00:35:25;;;;;;;13.77;10.90;;;;;;;13.05;100.00;99913.09;5072156;28;20028;-79
2022/04/15 00:37:50;;;;;;;15.93;9.85;;;;;;;13.04;100.00;99906.19;5071945;28;20064;-79
2022/04/15 00:40:16;;;;;;;13.30;10.50;;;;;;;13.04;100.00;99910.59;5072483;28;20029;-79
2022/04/15 00:42:41;;;;;;;10.70;9.60;;;;;;;13.06;100.00;99914.81;5072140;28;20028;-79
2022/04/15 00:45:09;;;;;;;11.85;8.80;;;;;;;13.02;100.00;99921.13;5071897;28;20486;-79
2022/04/15 00:47:51;;;;;;;11.52;8.75;;;;;;;13.06;100.00;99929.63;5072069;28;20024;-79
2022/04/15 00:50:28;;;;;;;11.52;8.50;;;;;;;12.92;100.00;99910.28;5072079;28;20422;-79
2022/04/15 00:52:55;;;;;;;13.82;8.52;;;;;;;12.85;100.00;99905.47;5053609;28;20044;-79
2022/04/15 00:55:22;;;;;;;9.35;7.95;;;;;;;12.94;100.00;99918.91;5072047;28;20376;-79
2022/04/15 00:57:50;;;;;;;10.57;7.78;;;;;;;12.98;100.00;99930.06;5071654;28;20465;-79
2022/04/15 01:00:16;;;;;;;8.52;7.63;;;;;;;12.95;100.00;99927.59;5071868;28;20476;-79
2022/04/15 01:02:43;;;;;;;8.40;7.60;;;;;;;12.94;100.00;99933.75;5071795;28;20055;-79
2022/04/15 01:05:09;;;;;;;7.88;6.72;;;;;;;12.90;100.00;99922.63;5071575;28;20043;-79
2022/04/15 01:07:37;;;;;;;7.82;6.53;;;;;;;12.87;100.00;99921.91;5072025;28;20503;-79
2022/04/15 01:10:06;;;;;;;7.80;6.47;;;;;;;12.82;100.00;99916.94;5071862;28;20047;-79
2022/04/15 01:12:35;;;;;;;8.85;7.22;;;;;;;12.87;100.00;99930.59;5071800;28;20067;-79
2022/04/15 01:15:03;;;;;;;8.30;6.63;;;;;;;12.86;100.00;99928.09;5071572;28;20028;-79
2022/04/15 01:17:29;;;;;;;9.02;6.38;;;;;;;12.79;100.00;99922.31;5071770;28;20039;-79
2022/04/15 01:19:55;;;;;;;9.20;7.15;;;;;;;12.69;100.00;99905.41;5075808;28;20031;-79
2022/04/15 01:22:24;;;;;;;8.23;6.72;;;;;;;12.74;100.00;99921.72;5075740;28;20029;-79
2022/04/15 01:24:52;;;;;;;7.47;6.63;;;;;;;12.71;100.00;99927.09;5075795;28;20033;-79
2022/04/15 01:27:27;;;;;;;6.32;5.55;;;;;;;12.70;100.00;99926.25;5075752;28;20027;-79
2022/04/15 01:29:53;;;;;;;8.27;6.25;;;;;;;12.59;100.00;99912.88;5075374;28;20103;-79
2022/04/15 01:32:18;;;;;;;6.38;5.68;;;;;;;12.62;100.00;99928.41;5075802;28;20103;-79
2022/04/15 01:34:44;;;;;;;6.80;5.95;;;;;;;12.54;100.00;99914.88;5075698;28;20021;-79
2022/04/15 01:37:10;;;;;;;8.05;6.22;;;;;;;12.59;100.00;99923.31;5075250;28;20035;-79
2022/04/15 01:39:38;;;;;;;7.05;6.35;;;;;;;12.50;100.00;99910.72;5075534;28;20087;-79
2022/04/15 01:42:04;;;;;;;7.70;6.22;;;;;;;12.52;100.00;99910.66;5075360;28;20159;-79
2022/04/15 01:44:29;;;;;;;6.65;5.80;;;;;;;12.44;100.00;99913.66;5075666;28;20471;-79
2022/04/15 01:46:54;;;;;;;6.70;5.68;;;;;;;12.41;100.00;99919.88;5075116;28;20104;-79
2022/04/15 01:49:20;;;;;;;7.15;6.00;;;;;;;12.45;100.00;99921.41;5075419;28;20024;-79
2022/04/15 01:51:45;;;;;;;7.68;6.10;;;;;;;12.44;100.00;99929.34;5075092;28;20044;-79
2022/04/15 01:54:11;;;;;;;7.15;5.75;;;;;;;12.38;100.00;99924.38;5074528;28;20056;-79
2022/04/15 01:56:36;;;;;;;7.70;6.25;;;;;;;12.30;100.00;99916.09;5075128;28;20064;-79
2022/04/15 01:59:01;;;;;;;7.10;6.35;;;;;;;12.30;100.00;99927.38;5074608;28;20036;-79
2022/04/15 02:01:27;;;;;;;6.95;6.15;;;;;;;12.37;100.00;99936.63;5075225;28;20448;-79
2022/04/15 02:03:52;;;;;;;9.88;6.72;;;;;;;12.30;100.00;99930.00;5074826;28;20040;-79
2022/04/15 02:06:18;;;;;;;9.73;6.63;;;;;;;12.33;100.00;99937.69;5075013;28;20032;-79
2022/04/15 02:08:43;;;;;;;7.10;6.40;;;;;;;12.27;100.00;99929.31;5074861;28;20040;-78
2022/04/15 02:11:08;;;;;;;7.30;6.15;;;;;;;12.34;100.00;99935.91;5074597;28;20379;-79
2022/04/15 02:13:34;;;;;;;8.45;7.55;;;;;;;12.35;100.00;99932.41;5074940;28;20036;-79
2022/04/15 02:15:59;;;;;;;8.90;7.93;;;;;;;12.30;100.00;99914.31;5074336;28;20103;-79
2022/04/15 02:18:26;;;;;;;8.68;7.75;;;;;;;12.26;100.00;99897.09;5056713;28;20021;-79
2022/04/15 02:20:54;;;;;;;7.97;7.07;;;;;;;12.26;100.00;99893.66;5074740;28;20103;-79
2022/04/15 02:23:19;;;;;;;8.10;7.30;;;;;;;12.15;100.00;99888.97;5074543;28;20028;-79
2022/04/15 02:25:45;;;;;;;8.25;7.45;;;;;;;12.15;100.00;99892.44;5074413;28;20381;-79
2022/04/15 02:28:10;;;;;;;10.48;7.45;;;;;;;12.12;100.00;99891.72;5073895;28;20052;-79
2022/04/15 02:30:36;;;;;;;9.00;7.90;;;;;;;12.07;100.00;99886.75;5072857;28;20464;-79
2022/04/15 02:33:01;;;;;;;9.20;7.90;;;;;;;12.06;100.00;99895.50;5074077;28;20021;-79
2022/04/15 02:35:26;;;;;;;7.78;6.97;;;;;;;12.09;100.00;99908.38;5074310;28;20027;-78
2022/04/15 02:37:52;;;;;;;8.30;7.50;;;;;;;12.08;100.00;99898.03;5074055;28;20056;-79
2022/04/15 02:40:17;;;;;;;10.07;8.48;;;;;;;12.04;100.00;99892.09;5074005;28;20020;-79
2022/04/15 02:42:43;;;;;;;10.02;7.90;;;;;;;12.07;100.00;99905.00;5074255;28;20116;-79
2022/04/15 02:45:09;;;;;;;8.88;7.97;;;;;;;12.06;100.00;99892.88;5073908;28;20028;-79
2022/04/15 02:47:34;;;;;;;8.48;7.43;;;;;;;12.05;100.00;99890.34;5074318;28;20033;-79
2022/04/15 02:50:00;;;;;;;9.52;8.10;;;;;;;12.06;100.00;99892.88;5074358;28;20036;-79
2022/04/15 02:52:25;;;;;;;8.80;7.90;;;;;;;11.96;100.00;99887.25;5074009;28;20131;-79
2022/04/15 02:54:51;;;;;;;8.27;7.47;;;;;;;12.01;100.00;99899.22;5074536;28;20028;-79
2022/04/15 02:57:16;;;;;;;9.02;8.07;;;;;;;12.03;100.00;99906.09;5073788;28;20115;-79
2022/04/15 02:59:42;;;;;;;9.80;8.80;;;;;;;11.94;100.00;99891.72;5073929;28;20468;-79
2022/04/15 03:02:07;;;;;;;11.35;9.52;;;;;;;12.05;100.00;99908.59;5073934;28;20070;-79
2022/04/15 03:04:32;;;;;;;10.88;9.43;;;;;;;12.00;100.00;99903.63;5074084;28;20024;-79
2022/04/15 03:06:58;;;;;;;11.50;9.23;;;;;;;11.95;100.00;99896.00;5073627;28;20021;-79
2022/04/15 03:09:25;;;;;;;12.02;9.85;;;;;;;11.94;100.00;99896.94;5073860;28;20418;-79
2022/04/15 03:11:50;;;;;;;10.25;9.10;;;;;;;11.93;100.00;99894.41;5073683;28;20472;-79
2022/04/15 03:14:17;;;;;;;12.15;9.88;;;;;;;11.82;100.00;99884.44;5073314;28;20038;-79
2022/04/15 03:16:43;;;;;;;11.15;10.05;;;;;;;11.90;100.00;99908.44;5073807;28;20103;-79
2022/04/15 03:19:09;;;;;;;12.43;11.00;;;;;;;11.73;100.00;99888.34;5073390;28;20032;-79
2022/04/15 03:21:36;;;;;;;11.18;10.00;;;;;;;11.74;100.00;99890.00;5073636;28;20073;-80
2022/04/15 03:24:02;;;;;;;12.18;9.65;;;;;;;11.81;100.00;99902.78;5073216;28;20063;-79
2022/04/15 03:26:28;;;;;;;11.82;10.43;;;;;;;11.78;100.00;99900.31;5073327;28;20033;-79
2022/04/15 03:28:53;;;;;;;11.75;9.48;;;;;;;11.79;100.00;99908.06;5073317;28;20056;-79
2022/04/15 03:31:19;;;;;;;13.93;10.75;;;;;;;11.71;100.00;99892.78;5073273;28;20024;-79
2022/04/15 03:33:45;;;;;;;13.90;12.48;;;;;;;11.73;100.00;99898.78;5073666;28;20456;-79
2022/04/15 03:36:11;;;;;;;14.00;12.15;;;;;;;11.72;100.00;99897.09;5073109;28;20103;-79
2022/04/15 03:38:36;;;;;;;12.82;11.50;;;;;;;11.81;100.00;99908.00;5073199;28;20028;-79
2022/04/15 03:41:02;;;;;;;15.93;12.88;;;;;;;11.77;100.00;99909.06;5072573;28;20034;-79
2022/04/15 03:43:27;;;;;;;13.82;12.35;;;;;;;11.57;100.00;99886.53;5073037;28;20107;-79
2022/04/15 03:45:53;;;;;;;13.50;12.10;;;;;;;11.47;100.00;99886.13;5073286;28;20076;-79
2022/04/15 03:48:18;;;;;;;15.27;12.68;;;;;;;11.52;100.00;99907.59;5072912;28;20059;-79
2022/04/15 03:50:44;;;;;;;17.23;13.48;;;;;;;11.47;100.00;99904.38;5073031;28;20024;-79
2022/04/15 03:53:09;;;;;;;15.73;13.65;;;;;;;11.36;100.00;99907.47;5072848;28;20128;-80
2022/04/15 03:55:34;;;;;;;15.70;14.02;;;;;;;11.25;100.00;99899.28;5073108;28;20028;-79
2022/04/15 03:58:00;;;;;;;16.15;13.38;;;;;;;11.26;100.00;99905.34;5072447;28;20112;-80
2022/04/15 04:00:25;;;;;;;16.17;14.18;;;;;;;11.19;100.00;99904.78;5055003;28;20035;-79
2022/04/15 04:02:53;;;;;;;14.23;12.80;;;;;;;11.08;100.00;99891.34;5072839;28;20468;-80
2022/04/15 04:05:20;;;;;;;15.13;13.45;;;;;;;11.09;100.00;99903.50;5072497;28;20039;-79
2022/04/15 04:07:45;;;;;;;15.27;13.10;;;;;;;11.03;100.00;99907.22;5072608;28;20081;-79
2022/04/15 04:10:13;;;;;;;15.18;13.65;;;;;;;10.94;100.00;99885.00;5054397;28;20021;-79
2022/04/15 04:12:39;;;;;;;15.07;12.88;;;;;;;10.88;100.00;99887.91;5072520;28;20415;-80
2022/04/15 04:15:06;;;;;;;16.75;13.95;;;;;;;10.82;100.00;99895.97;5072461;28;20610;-79
2022/04/15 04:17:33;;;;;;;14.63;13.13;;;;;;;10.82;100.00;99895.13;5072235;28;20523;-80
2022/04/15 04:19:59;;;;;;;14.27;12.32;;;;;;;10.87;100.00;99904.47;5054532;28;20042;-80
2022/04/15 04:22:35;;;;;;;15.90;13.75;;;;;;;10.93;100.00;99898.97;5072241;28;20369;-79
2022/04/15 04:25:01;;;;;;;15.70;13.30;;;;;;;11.04;100.00;99903.72;5072259;28;20059;-78
2022/04/15 04:27:27;;;;;;;14.15;12.65;;;;;;;11.04;100.00;99895.91;5072365;28;20469;-79
2022/04/15 04:29:52;;;;;;;16.10;14.23;;;;;;;11.11;100.00;99904.25;5072235;28;20033;-78
2022/04/15 04:32:19;;;;;;;15.95;14.35;;;;;;;11.09;100.00;99895.69;5072035;28;20024;-78
2022/04/15 04:34:45;;;;;;;16.38;14.52;;;;;;;11.27;100.00;99917.47;5054246;28;20476;-79
2022/04/15 04:37:10;;;;;;;16.30;14.70;;;;;;;11.32;100.00;99924.16;5071869;28;20074;-79
2022/04/15 04:39:36;;;;;;;18.10;16.05;;;;;;;11.35;100.00;99910.16;5071871;28;20396;-79
2022/04/15 04:42:05;;;;;;;18.33;15.63;;;;;;;11.41;100.00;99915.91;5072401;28;20139;-79
2022/04/15 04:44:31;;;;;;;19.00;16.33;;;;;;;11.49;100.00;99921.63;5072141;28;20032;-79
2022/04/15 04:46:57;;;;;;;19.58;16.45;;;;;;;11.52;100.00;99931.09;5072329;28;20579;-79
2022/04/15 04:49:24;;;;;;;21.52;18.42;;;;;;;11.51;100.00;99918.13;5071864;28;20028;-79
2022/04/15 04:51:49;;;;;;;19.13;17.00;;;;;;;11.47;100.00;99918.25;5071638;28;20056;-79
2022/04/15 04:54:15;;;;;;;20.48;16.70;;;;;;;11.55;100.00;99927.50;5053334;28;20025;-79
2022/04/15 04:56:40;;;;;;;22.35;17.05;;;;;;;11.61;100.00;99925.44;5072118;28;20024;-79
2022/04/15 04:59:06;;;;;;;19.38;16.92;;;;;;;11.62;100.00;99927.13;5071693;28;20020;-78
2022/04/15 05:01:31;;;;;;;19.75;17.58;;;;;;;11.71;100.00;99938.88;5072184;28;20028;-75
2022/04/15 05:03:56;;;;;;;21.20;16.35;;;;;;;11.65;100.00;99929.59;5071891;28;20020;-74
2022/04/15 05:06:22;;;;;;;19.70;17.48;;;;;;;11.69;100.00;99936.38;5071617;28;20063;-75
2022/04/15 05:08:47;;;;;;;19.30;17.20;;;;;;;11.75;100.00;99940.44;5071576;28;20155;-75
2022/04/15 05:11:13;;;;;;;18.23;16.33;;;;;;;11.71;100.00;99938.88;5071684;28;20028;-75
2022/04/15 05:13:38;;;;;;;17.85;16.02;;;;;;;11.71;100.00;99946.72;5071884;28;20158;-75
2022/04/15 05:16:04;;;;;;;18.75;16.70;;;;;;;11.66;100.00;99941.72;5071819;28;20025;-75
2022/04/15 05:18:29;;;;;;;18.63;16.33;;;;;;;11.73;100.00;99955.34;5071631;28;20121;-75
2022/04/15 05:20:54;;;;;;;20.20;17.52;;;;;;;11.64;100.00;99942.72;5072159;28;20032;-75
2022/04/15 05:23:20;;;;;;;18.88;16.88;;;;;;;11.65;100.00;99949.63;5071476;28;20418;-75
2022/04/15 05:25:45;;;;;;;21.45;17.52;;;;;;;11.70;100.00;99958.91;5071622;28;20060;-75
2022/04/15 05:28:11;;;;;;;18.23;16.33;;;;;;;11.69;100.00;99962.44;5071546;28;20460;-75
2022/04/15 05:30:36;;;;;;;19.98;16.85;;;;;;;11.68;100.00;99967.75;5071670;28;20032;-75
2022/04/15 05:33:02;;;;;;;20.55;18.20;;;;;;;11.67;100.00;99960.81;5071590;28;20055;-75
2022/04/15 05:35:27;;;;;;;20.52;18.33;;;;;;;11.67;100.00;99960.81;5071210;28;20024;-75
2022/04/15 05:37:53;;;;;;;20.88;18.52;;;;;;;11.68;100.00;99960.78;5071344;28;20029;-75
2022/04/15 05:40:19;;;;;;;20.98;18.88;;;;;;;11.73;100.00;99956.19;5071428;28;20033;-75
2022/04/15 05:42:44;;;;;;;19.25;17.27;;;;;;;11.67;100.00;99953.00;5071652;28;20042;-75
2022/04/15 05:45:10;;;;;;;19.63;17.58;;;;;;;11.64;100.00;99955.75;5071315;28;20115;-75
2022/04/15 05:47:36;;;;;;;19.75;17.70;;;;;;;11.64;100.00;99955.75;5071570;28;20207;-75
2022/04/15 05:50:01;;;;;;;19.80;17.70;;;;;;;11.61;100.00;99969.78;5071421;28;20447;-75
2022/04/15 05:52:27;;;;;;;19.67;17.48;;;;;;;11.63;100.00;99959.25;5071097;28;20132;-75
2022/04/15 05:54:52;;;;;;;19.95;17.85;;;;;;;11.56;100.00;99960.47;5071373;28;20484;-75
2022/04/15 05:57:19;;;;;;;19.38;17.30;;;;;;;11.57;100.00;99970.84;5071159;28;20041;-75
2022/04/15 05:59:45;;;;;;;19.15;17.05;;;;;;;11.59;100.00;99969.03;5071459;28;20024;-79
2022/04/15 06:02:10;;;;;;;19.40;17.40;;;;;;;11.62;100.00;99973.22;5071152;28;20483;-79
2022/04/15 06:04:35;;;;;;;19.77;17.77;;;;;;;11.66;100.00;99978.25;5055163;28;20115;-79
2022/04/15 06:07:01;;;;;;;19.83;17.50;;;;;;;11.57;100.00;99957.78;5074858;28;20035;-79
2022/04/15 06:09:26;;;;;;;21.67;18.17;;;;;;;11.71;100.00;99988.47;5074722;28;20024;-79
2022/04/15 06:11:55;;;;;;;20.42;18.27;;;;;;;11.64;100.00;99974.88;5074890;28;20090;-79
2022/04/15 06:14:22;;;;;;;23.13;19.20;;;;;;;11.70;100.00;99985.00;5074751;28;20111;-79
2022/04/15 06:16:47;;;;;;;22.05;18.88;;;;;;;11.67;100.00;99979.09;5074824;28;20380;-79
2022/04/15 06:19:14;;;;;;;20.73;17.95;;;;;;;11.80;100.00;99976.75;5074409;28;20032;-79
2022/04/15 06:21:40;;;;;;;19.48;17.48;;;;;;;11.81;100.00;99975.88;5074477;28;20028;-79
2022/04/15 06:24:08;;;;;;;21.48;19.17;;;;;;;11.82;100.00;99975.78;5074751;28;20028;-79
2022/04/15 06:26:36;;;;;;;22.65;19.40;;;;;;;11.87;100.00;99970.38;5074715;28;20099;-79
2022/04/15 06:29:02;;;;;;;24.35;20.83;;;;;;;11.85;100.00;99969.63;5056553;28;20147;-79
2022/04/15 06:31:27;;;;;;;22.17;19.63;;;;;;;11.89;100.00;99979.00;5074289;28;20515;-79
2022/04/15 06:33:53;;;;;;;21.70;18.85;;;;;;;11.93;100.00;99985.75;5074468;28;20029;-79
2022/04/15 06:36:19;;;;;;;20.45;18.30;;;;;;;11.96;100.00;99975.16;5056228;28;20035;-79
2022/04/15 06:38:45;;;;;;;22.02;19.80;;;;;;;12.04;100.00;99980.03;5074648;28;20025;-79
2022/04/15 06:41:11;;;;;;;23.50;21.00;;;;;;;12.13;100.00;99984.81;5074384;28;20024;-79
2022/04/15 06:43:36;;;;;;;23.27;20.27;;;;;;;12.16;100.00;99988.13;5074351;28;20020;-79
2022/04/15 06:46:03;;;;;;;24.73;22.02;;;;;;;12.26;100.00;99987.66;5074568;28;20518;-79
2022/04/15 06:48:29;;;;;;;21.58;19.15;;;;;;;12.26;100.00;99979.84;5073821;28;20415;-79
2022/04/15 06:50:54;;;;;;;24.02;21.02;;;;;;;12.37;100.00;99988.00;5073872;28;20489;-79
2022/04/15 06:53:23;;;;;;;21.42;19.27;;;;;;;12.40;100.00;99982.66;5073524;28;20044;-79
2022/04/15 06:55:49;;;;;;;22.63;20.23;;;;;;;12.46;100.00;99980.56;5080058;28;20032;-79
2022/04/15 06:58:15;;;;;;;21.38;19.08;;;;;;;12.52;100.00;99994.28;5093957;28;20402;-79
2022/04/15 07:00:40;;;;;;;24.20;20.55;;;;;;;12.39;100.00;99975.75;5094202;28;20031;-79
2022/04/15 07:03:06;;;;;;;21.67;19.48;;;;;;;12.36;100.00;99979.34;5088479;28;20507;-79
2022/04/15 07:05:32;;;;;;;23.27;19.67;;;;;;;12.37;100.00;99988.84;5058079;28;20078;-79
2022/04/15 07:07:57;;;;;;;20.63;18.50;;;;;;;12.40;100.00;99980.03;5073815;28;20464;-79
2022/04/15 07:10:23;;;;;;;21.65;19.38;;;;;;;12.47;100.00;99979.66;5073574;28;20099;-79
2022/04/15 07:12:49;;;;;;;23.90;20.35;;;;;;;12.55;100.00;99983.66;5073759;28;20031;-79
2022/04/15 07:15:14;;;;;;;29.58;23.88;;;;;;;12.47;100.00;99978.78;5055188;28;20033;-79
2022/04/15 07:17:39;;;;;;;25.80;22.77;;;;;;;12.51;100.00;99982.09;5073485;28;20024;-79
2022/04/15 07:20:06;;;;;;;31.10;24.20;;;;;;;12.58;100.00;99986.13;5055492;28;20028;-80
2022/04/15 07:22:31;;;;;;;50.35;35.35;;;;;;;12.64;100.00;99997.13;5073374;28;20033;-79
2022/04/15 07:24:56;;;;;;;39.95;30.55;;;;;;;12.70;100.00;100002.03;5073318;28;20066;-79
2022/04/15 07:27:22;;;;;;;32.08;25.70;;;;;;;12.67;100.00;100001.31;5073184;28;20519;-79
2022/04/15 07:29:47;;;;;;;23.60;21.08;;;;;;;12.64;100.00;99996.25;5073326;28;20028;-79
2022/04/15 07:32:22;;;;;;;25.67;20.50;;;;;;;12.64;100.00;99999.72;5073186;28;20483;-79
2022/04/15 07:34:49;;;;;;;26.48;23.67;;;;;;;12.57;100.00;99981.81;5073260;28;20123;-79
2022/04/15 07:37:14;;;;;;;23.77;21.38;;;;;;;12.67;100.00;99978.66;5073163;28;20074;-79
2022/04/15 07:39:40;;;;;;;22.25;20.02;;;;;;;13.01;100.00;99991.78;5073209;28;20033;-79
2022/04/15 07:42:05;;;;;;;24.25;21.77;;;;;;;13.23;100.00;99987.16;5073138;28;20028;-80
2022/04/15 07:44:31;;;;;;;22.20;19.88;;;;;;;13.80;100.00;99977.16;5072865;28;20109;-79
2022/04/15 07:46:56;;;;;;;23.88;21.33;;;;;;;15.94;100.00;99984.69;5054990;28;20520;-79
2022/04/15 07:49:21;;;;;;;21.15;18.48;;;;;;;20.65;92.84;99976.56;5072600;28;20036;-79
2022/04/15 07:51:48;;;;;;;21.27;17.45;;;;;;;22.80;74.63;99981.63;5073125;28;20017;-79
2022/04/15 07:54:14;;;;;;;18.73;16.02;;;;;;;23.27;70.55;99973.72;5073042;28;20049;-79
2022/04/15 07:56:40;;;;;;;16.33;14.63;;;;;;;24.08;64.73;99981.88;5077613;28;20498;-80
2022/04/15 07:59:07;;;;;;;15.35;13.68;;;;;;;23.92;59.76;99984.38;5092958;28;20106;-80
2022/04/15 08:01:33;;;;;;;15.23;13.68;;;;;;;21.63;63.41;99986.75;5092735;28;20028;-79
2022/04/15 08:03:59;;;;;;;16.25;14.02;;;;;;;20.52;68.51;99988.28;5093222;28;20040;-79
2022/04/15 08:06:26;;;;;;;17.55;13.85;;;;;;;22.23;64.02;99978.81;5092906;28;20020;-79
2022/04/15 08:08:55;;;;;;;14.88;13.30;;;;;;;21.51;64.79;99987.81;5092520;28;20460;-80
2022/04/15 08:11:22;;;;;;;15.82;14.32;;;;;;;20.68;67.89;99970.16;5092487;28;20475;-79
2022/04/15 08:13:48;;;;;;;15.48;13.88;;;;;;;20.54;68.36;99987.19;5092699;28;20028;-79
2022/04/15 08:16:14;;;;;;;15.25;13.68;;;;;;;19.48;70.94;99988.69;5092603;28;20150;-79
2022/04/15 08:18:40;;;;;;;15.50;13.90;;;;;;;18.34;73.38;99981.44;5092313;28;20110;-79
2022/04/15 08:21:06;;;;;;;15.27;13.63;;;;;;;17.50;77.34;99968.16;5092600;28;20064;-79
2022/04/15 08:23:31;;;;;;;17.63;15.70;;;;;;;16.75;79.37;99973.31;5049064;28;20114;-79
2022/04/15 08:25:57;;;;;;;15.32;13.70;;;;;;;16.40;82.37;99981.72;5049730;28;20502;-79
2022/04/15 08:28:22;;;;;;;15.82;13.10;;;;;;;16.17;84.30;99991.09;5048599;28;20464;-79
2022/04/15 08:30:47;;;;;;;15.13;13.40;;;;;;;15.98;84.91;99985.34;5032987;28;20480;-80
2022/04/15 08:33:13;;;;;;;15.02;13.52;;;;;;;15.77;86.12;99985.75;5033005;28;20527;-79
2022/04/15 08:35:41;;;;;;;15.80;13.40;;;;;;;15.42;87.93;99975.63;5049526;28;20029;-79
2022/04/15 08:38:06;;;;;;;15.82;14.13;;;;;;;15.23;90.07;99990.78;5049636;28;20611;-79
2022/04/15 08:40:35;;;;;;;19.65;15.05;;;;;;;14.96;91.86;100001.16;5049463;28;20107;-79
2022/04/15 08:43:03;;;;;;;18.60;15.18;;;;;;;14.69;95.06;100006.22;5049648;28;20041;-79
2022/04/15 08:45:30;;;;;;;18.55;15.65;;;;;;;14.43;98.42;100012.94;5047337;28;20033;-79
2022/04/15 08:47:59;;;;;;;17.95;16.05;;;;;;;14.17;100.00;100025.72;5032292;28;20042;-81
2022/04/15 08:50:25;;;;;;;18.92;16.42;;;;;;;13.86;100.00;100028.31;5029282;28;20549;-81
2022/04/15 08:52:55;;;;;;;16.48;13.85;;;;;;;13.57;100.00;100030.75;5029411;28;20049;-82
2022/04/15 08:55:22;;;;;;;15.07;12.68;;;;;;;13.35;100.00;100032.78;5065098;28;20063;-80
2022/04/15 08:57:52;;;;;;;10.85;9.80;;;;;;;13.25;100.00;100036.81;5071832;28;20395;-80
2022/04/15 09:00:19;;;;;;;9.40;7.07;;;;;;;13.12;100.00;100036.56;5071838;28;20056;-80
2022/04/15 09:02:44;;;;;;;10.50;7.22;;;;;;;13.00;100.00;100027.56;5071830;28;20055;-81
2022/04/15 09:05:11;;;;;;;8.27;6.90;;;;;;;13.01;100.00;100026.63;5053742;28;20052;-81
2022/04/15 09:07:37;;;;;;;10.57;8.38;;;;;;;12.96;100.00;100026.88;5071487;28;20479;-79
2022/04/15 09:10:05;;;;;;;10.43;8.80;;;;;;;12.97;100.00;100017.25;5071573;28;20020;-80
2022/04/15 09:12:31;;;;;;;15.10;10.73;;;;;;;12.92;100.00;100014.88;5071185;28;20020;-79
2022/04/15 09:15:00;;;;;;;21.20;15.18;;;;;;;12.92;100.00;100027.94;5071621;28;20028;-80
2022/04/15 09:17:29;;;;;;;17.23;12.85;;;;;;;12.91;100.00;100022.78;5071251;28;20103;-80
2022/04/15 09:19:58;;;;;;;15.50;12.00;;;;;;;13.02;100.00;100014.38;5071394;28;20384;-80
2022/04/15 09:22:23;;;;;;;15.23;11.90;;;;;;;13.25;100.00;100024.56;5071242;28;20035;-80
2022/04/15 09:24:51;;;;;;;15.85;12.32;;;;;;;13.27;100.00;100008.78;5071466;28;20029;-80
2022/04/15 09:27:17;;;;;;;19.65;13.40;;;;;;;13.51;100.00;100030.22;5071376;28;20424;-80
2022/04/15 09:29:42;;;;;;;19.95;13.07;;;;;;;13.51;100.00;99997.03;5053262;28;20166;-79
2022/04/15 09:32:14;;;;;;;17.02;13.65;;;;;;;13.83;100.00;100020.66;5071466;28;20115;-80
2022/04/15 09:35:06;;;;;;;18.90;14.23;;;;;;;13.84;100.00;100017.09;5071107;28;20050;-79
2022/04/15 09:37:37;;;;;;;20.33;15.10;;;;;;;14.00;100.00;100023.19;5071009;28;20032;-80
2022/04/15 09:40:22;;;;;;;19.05;15.52;;;;;;;14.03;100.00;100035.25;5074540;28;20480;-80
2022/04/15 09:42:52;;;;;;;16.95;14.82;;;;;;;14.01;100.00;100018.81;5075235;28;20037;-80
2022/04/15 09:45:22;;;;;;;17.98;14.50;;;;;;;14.01;100.00;100017.03;5075214;28;20380;-80
2022/04/15 09:48:17;;;;;;;16.98;13.73;;;;;;;13.99;100.00;100029.38;5057006;28;20039;-80
2022/04/15 09:50:43;;;;;;;16.73;13.82;;;;;;;13.91;100.00;100029.78;5013228;28;20406;-80
2022/04/15 09:53:17;;;;;;;20.35;15.10;;;;;;;13.89;100.00;100026.38;4996406;28;20054;-80
2022/04/15 09:55:46;;;;;;;18.38;13.75;;;;;;;13.96;100.00;100024.28;4996313;28;20061;-79
2022/04/15 09:58:15;;;;;;;16.08;13.82;;;;;;;13.90;100.00;100033.31;5012662;28;20116;-80
2022/04/15 10:00:47;;;;;;;14.77;13.13;;;;;;;13.83;100.00;100025.91;5012494;28;20081;-82
2022/04/15 10:03:18;;;;;;;14.90;12.50;;;;;;;13.69;100.00;100018.75;5013027;28;20192;-80
2022/04/15 10:05:45;;;;;;;14.52;12.98;;;;;;;13.69;100.00;100016.13;5012485;28;20041;-79
2022/04/15 10:08:10;;;;;;;15.80;13.35;;;;;;;13.68;100.00;100036.25;5013627;28;20081;-80
2022/04/15 10:10:37;;;;;;;16.20;13.90;;;;;;;13.53;100.00;100036.22;5013313;28;20041;-80
2022/04/15 10:13:05;;;;;;;14.52;12.32;;;;;;;13.47;100.00;100029.53;5013058;28;20030;-80
2022/04/15 10:15:32;;;;;;;15.57;13.32;;;;;;;13.44;100.00;100027.06;5013116;28;20398;-81
2022/04/15 10:18:01;;;;;;;15.65;11.98;;;;;;;13.41;100.00;100033.31;5012672;28;20030;-80
2022/04/15 10:20:31;;;;;;;18.25;12.93;;;;;;;13.51;100.00;100041.53;5012983;28;20076;-80
2022/04/15 10:23:01;;;;;;;14.68;13.10;;;;;;;13.65;100.00;100046.03;5012608;28;20033;-80
2022/04/15 10:25:28;;;;;;;14.52;12.27;;;;;;;13.89;100.00;100036.84;4995808;28;20511;-81
2022/04/15 10:28:04;;;;;;;13.63;12.02;;;;;;;14.18;100.00;100034.44;5064746;28;20037;-79
2022/04/15 10:30:30;;;;;;;12.05;10.80;;;;;;;14.31;100.00;100035.44;5056321;28;20474;-78
2022/04/15 10:32:57;;;;;;;14.85;11.93;;;;;;;14.52;100.00;100046.53;5074711;28;20056;-79
2022/04/15 10:35:28;;;;;;;11.63;9.85;;;;;;;14.50;100.00;100043.16;5074523;28;20024;-79
2022/04/15 10:37:58;;;;;;;9.57;8.57;;;;;;;14.53;100.00;100044.75;5074252;28;20032;-78
2022/04/15 10:40:26;;;;;;;9.27;7.65;;;;;;;14.69;98.91;100048.19;5075742;28;20112;-79
2022/04/15 10:42:52;;;;;;;8.80;7.57;;;;;;;14.79;98.06;100035.38;5075351;28;20082;-80
2022/04/15 10:45:26;;;;;;;8.52;7.38;;;;;;;15.09;97.69;100043.25;5076663;28;20016;-80
2022/04/15 10:47:57;;;;;;;8.65;7.43;;;;;;;15.37;97.85;100042.44;5083552;28;20419;-78
2022/04/15 10:50:26;;;;;;;7.18;6.20;;;;;;;15.34;96.82;100032.16;5084904;28;20502;-79
2022/04/15 10:52:52;;;;;;;6.90;5.38;;;;;;;15.17;96.09;100025.28;5094143;28;20048;-78
2022/04/15 10:55:17;;;;;;;5.40;4.63;;;;;;;15.07;95.39;100038.09;5077154;28;20499;-78
2022/04/15 10:57:48;;;;;;;5.82;4.30;;;;;;;14.85;94.07;100029.78;5073702;28;20036;-80
2022/04/15 11:03:22;;;;;;;4.53;4.05;;;;;;;14.63;89.91;100033.66;5084622;28;20046;-79
2022/04/15 11:05:48;;;;;;;4.57;4.00;;;;;;;14.64;89.82;100035.34;5075704;28;20077;-79
2022/04/15 11:08:19;;;;;;;4.35;3.75;;;;;;;14.59;89.88;100026.06;5093941;28;20028;-79
2022/04/15 11:11:03;;;;;;;5.35;4.03;;;;;;;14.82;89.13;100033.44;5075379;28;20073;-80
2022/04/15 11:13:39;;;;;;;4.18;3.50;;;;;;;14.94;88.34;100043.22;5074095;28;20024;-78
2022/04/15 11:16:06;;;;;;;4.40;3.80;;;;;;;14.82;86.43;100043.06;5073679;28;20027;-79